Time;durP1;ratioP1;P1;durP2;ratioP2;P2;SDS_P1;SDS_P2;PMS_P1;PMS_P2;Temp;Humidity;BMP_temperature;BMP_pressure;BME280_temperature;BME280_humidity;BME280_pressure;Samples;Min_cycle;Max_cycle;Signal;HPM_P1;HPM_P2
2021/12/04 00:00:58;;;;;;;6.83;4.27;;;4.20;81.00;;;;;;5104404;28;20965;-43
2021/12/04 00:03:25;;;;;;;6.83;4.50;;;4.10;81.00;;;;;;5100030;28;20491;-43
2021/12/04 00:05:55;;;;;;;6.23;4.70;;;4.10;81.10;;;;;;5099193;27;20516;-43
2021/12/04 00:08:25;;;;;;;6.30;4.67;;;4.10;81.00;;;;;;5098272;28;20461;-43
2021/12/04 00:10:52;;;;;;;4.73;4.10;;;4.10;81.00;;;;;;5101379;28;20456;-43
2021/12/04 00:13:20;;;;;;;5.87;4.37;;;4.20;81.00;;;;;;5083232;28;20453;-43
2021/12/04 00:15:46;;;;;;;11.17;5.30;;;4.10;81.20;;;;;;5081956;28;20955;-43
2021/12/04 00:18:13;;;;;;;6.50;5.63;;;4.10;81.30;;;;;;5084547;28;20939;-43
2021/12/04 00:20:41;;;;;;;7.03;4.83;;;4.10;81.30;;;;;;5101231;28;20526;-43
2021/12/04 00:23:08;;;;;;;5.00;4.30;;;4.10;81.60;;;;;;5095147;28;20510;-43
2021/12/04 00:25:37;;;;;;;6.40;4.50;;;4.10;81.60;;;;;;5074702;28;20457;-43
2021/12/04 00:28:06;;;;;;;6.87;4.40;;;4.10;81.70;;;;;;5097253;27;20475;-43
2021/12/04 00:30:33;;;;;;;6.83;4.93;;;4.10;81.80;;;;;;5100913;27;20453;-43
2021/12/04 00:33:03;;;;;;;6.00;4.20;;;4.10;81.90;;;;;;5094706;27;21014;-43
2021/12/04 00:51:55;;;;;;;6.87;3.97;;;4.10;82.90;;;;;;5096284;28;20963;-43
2021/12/04 00:54:24;;;;;;;6.90;4.33;;;4.10;83.10;;;;;;5094727;28;20829;-43
2021/12/04 00:56:51;;;;;;;5.17;3.40;;;4.10;83.20;;;;;;5073017;28;20475;-43
2021/12/04 00:59:19;;;;;;;3.83;3.53;;;4.10;83.30;;;;;;5098666;28;20452;-43
2021/12/04 01:01:46;;;;;;;4.83;4.00;;;4.10;83.50;;;;;;5075480;28;20448;-43
2021/12/04 01:04:15;;;;;;;3.63;3.23;;;4.20;83.70;;;;;;5096039;28;20471;-43
2021/12/04 01:06:42;;;;;;;7.60;3.80;;;4.10;83.80;;;;;;5081554;28;20457;-43
2021/12/04 01:09:12;;;;;;;5.13;4.00;;;4.10;84.00;;;;;;5082932;28;20440;-43
2021/12/04 01:11:41;;;;;;;4.80;4.40;;;4.10;83.90;;;;;;5082044;28;20444;-43
2021/12/04 01:14:10;;;;;;;4.83;4.37;;;4.10;83.90;;;;;;5079803;28;20467;-43
2021/12/04 01:16:37;;;;;;;5.43;4.20;;;4.10;84.00;;;;;;5100990;28;20452;-43
2021/12/04 01:19:04;;;;;;;4.80;4.10;;;4.10;84.00;;;;;;5089800;28;21138;-43
2021/12/04 01:21:31;;;;;;;3.80;3.40;;;4.10;84.10;;;;;;5101212;27;20455;-42
2021/12/04 01:23:58;;;;;;;5.67;4.97;;;4.00;84.30;;;;;;5099747;28;20490;-42
2021/12/04 01:26:26;;;;;;;5.50;3.93;;;4.00;84.40;;;;;;5096318;28;20832;-42
2021/12/04 01:28:53;;;;;;;4.13;3.30;;;4.00;84.60;;;;;;5099971;28;20448;-43
2021/12/04 01:31:20;;;;;;;6.73;4.20;;;4.00;84.80;;;;;;5099031;28;20794;-43
2021/12/04 01:33:47;;;;;;;4.73;4.13;;;4.00;84.80;;;;;;5095221;28;20513;-43
2021/12/04 01:36:14;;;;;;;5.23;4.60;;;4.00;85.10;;;;;;5097763;28;20523;-43
2021/12/04 01:38:41;;;;;;;4.43;4.00;;;3.90;85.10;;;;;;5094015;27;20465;-42
2021/12/04 01:41:08;;;;;;;4.90;3.73;;;3.90;85.20;;;;;;5085826;28;20474;-42
2021/12/04 01:43:35;;;;;;;4.37;3.53;;;3.90;85.30;;;;;;5081418;28;20864;-42
2021/12/04 01:46:02;;;;;;;4.13;3.40;;;3.80;85.30;;;;;;5076368;28;20461;-42
2021/12/04 01:48:29;;;;;;;6.70;3.50;;;3.80;85.50;;;;;;5094891;28;21018;-42
2021/12/04 01:50:56;;;;;;;4.73;4.30;;;3.80;85.60;;;;;;5084981;28;20455;-42
2021/12/04 01:53:25;;;;;;;4.97;3.50;;;3.80;85.70;;;;;;5096598;28;20474;-43
2021/12/04 01:55:54;;;;;;;4.13;3.70;;;3.70;85.80;;;;;;5076845;28;20528;-43
2021/12/04 01:58:23;;;;;;;3.83;3.50;;;3.70;85.90;;;;;;5099638;28;20447;-42
2021/12/04 02:00:51;;;;;;;6.90;4.20;;;3.70;86.00;;;;;;5097850;28;20459;-42
2021/12/04 02:03:19;;;;;;;10.37;4.33;;;3.70;86.10;;;;;;5096319;28;20487;-42
2021/12/04 02:05:47;;;;;;;4.50;4.00;;;3.70;86.20;;;;;;5094034;28;20460;-42
2021/12/04 02:08:16;;;;;;;4.10;3.60;;;3.70;86.30;;;;;;5099955;27;20445;-42
2021/12/04 02:10:46;;;;;;;5.13;3.53;;;3.70;86.50;;;;;;5078941;28;20460;-42
2021/12/04 02:13:15;;;;;;;3.90;2.93;;;3.70;86.50;;;;;;5096960;28;20443;-42
2021/12/04 02:15:44;;;;;;;5.23;4.00;;;3.70;86.70;;;;;;5090850;28;20849;-42
2021/12/04 02:18:13;;;;;;;3.33;3.03;;;3.60;86.80;;;;;;5080835;28;20463;-42
2021/12/04 02:20:40;;;;;;;3.80;3.50;;;3.60;87.00;;;;;;5094257;28;20465;-42
2021/12/04 02:23:08;;;;;;;4.43;3.90;;;3.60;87.20;;;;;;5095231;28;20451;-43
2021/12/04 02:25:36;;;;;;;4.40;3.30;;;3.60;87.10;;;;;;5090993;28;20500;-43
2021/12/04 02:28:04;;;;;;;3.97;3.47;;;3.50;87.10;;;;;;5099470;28;20453;-43
2021/12/04 02:30:35;;;;;;;6.97;3.60;;;3.50;87.20;;;;;;5076641;28;20543;-43
2021/12/04 02:33:11;;;;;;;3.37;3.07;;;3.50;87.30;;;;;;5096872;28;20470;-43
2021/12/04 02:35:41;;;;;;;5.80;4.70;;;3.50;87.30;;;;;;5092984;28;20534;-42
2021/12/04 02:38:08;;;;;;;5.53;4.07;;;3.50;87.20;;;;;;5067616;28;20552;-42
2021/12/04 02:40:35;;;;;;;3.10;2.80;;;3.40;87.40;;;;;;5093191;28;20451;-42
2021/12/04 02:43:02;;;;;;;5.50;3.47;;;3.40;87.50;;;;;;5096099;28;20495;-42
2021/12/04 02:45:29;;;;;;;3.60;3.17;;;3.40;87.50;;;;;;5085694;28;20491;-42
2021/12/04 02:47:56;;;;;;;8.13;5.57;;;3.40;87.60;;;;;;5097255;28;20849;-42
2021/12/04 02:50:23;;;;;;;3.60;3.30;;;3.40;87.80;;;;;;5081298;28;20445;-42
2021/12/04 02:52:50;;;;;;;4.60;3.97;;;3.40;87.90;;;;;;5102840;28;20959;-42
2021/12/04 02:55:17;;;;;;;5.83;4.13;;;3.40;87.80;;;;;;5097562;28;20472;-43
2021/12/04 02:57:44;;;;;;;7.20;4.00;;;3.40;87.80;;;;;;5082281;28;20860;-42
2021/12/04 03:00:17;;;;;;;4.37;3.50;;;3.40;87.50;;;;;;5080120;28;20461;-42
2021/12/04 03:02:44;;;;;;;4.33;3.90;;;3.40;87.50;;;;;;5100101;28;20464;-44
2021/12/04 03:05:12;;;;;;;3.40;3.10;;;3.30;87.60;;;;;;5106966;28;20491;-44
2021/12/04 03:07:39;;;;;;;3.67;3.23;;;3.30;87.70;;;;;;5108822;28;21061;-44
2021/12/04 03:10:08;;;;;;;5.40;3.87;;;3.30;87.80;;;;;;5086969;28;20474;-44
2021/12/04 03:12:36;;;;;;;5.40;3.70;;;3.30;87.80;;;;;;5111325;28;20460;-44
2021/12/04 03:15:04;;;;;;;4.23;3.33;;;3.30;87.60;;;;;;5091899;28;20549;-44
2021/12/04 03:17:31;;;;;;;5.90;3.57;;;3.30;87.80;;;;;;5072374;28;20515;-44
2021/12/04 03:19:57;;;;;;;5.27;4.40;;;3.30;87.80;;;;;;5108286;28;20451;-44
2021/12/04 03:22:25;;;;;;;5.00;4.23;;;3.30;87.90;;;;;;5103380;28;20460;-44
2021/12/04 03:24:53;;;;;;;4.30;3.90;;;3.30;87.70;;;;;;5107633;28;20488;-44
2021/12/04 03:27:20;;;;;;;5.03;3.80;;;3.30;87.80;;;;;;5111547;28;22662;-44
2021/12/04 03:30:19;;;;;;;4.90;4.40;;;3.30;87.80;;;;;;5110280;28;20517;-44
2021/12/04 03:40:38;;;;;;;3.20;2.90;;;3.30;87.70;;;;;;5093894;28;20492;-44
2021/12/04 03:43:10;;;;;;;4.07;3.60;;;3.20;87.70;;;;;;5077650;28;20940;-44
2021/12/04 03:45:39;;;;;;;4.47;3.73;;;3.20;87.80;;;;;;5077140;28;20484;-44
2021/12/04 03:48:13;;;;;;;4.10;3.57;;;3.20;87.80;;;;;;5086410;28;20462;-44
2021/12/04 03:50:40;;;;;;;5.00;3.10;;;3.20;87.80;;;;;;5082717;28;20457;-44
2021/12/04 03:53:07;;;;;;;5.53;3.20;;;3.20;87.90;;;;;;5078548;28;20460;-44
2021/12/04 03:55:34;;;;;;;5.87;3.40;;;3.20;87.90;;;;;;5076660;28;20475;-44
2021/12/04 03:58:01;;;;;;;3.80;3.50;;;3.20;87.90;;;;;;5097264;28;20447;-44
2021/12/04 04:00:28;;;;;;;5.80;3.70;;;3.10;88.00;;;;;;5099307;28;20451;-44
2021/12/04 04:02:57;;;;;;;5.83;4.37;;;3.10;88.10;;;;;;5097351;28;20463;-44
2021/12/04 04:05:25;;;;;;;4.70;3.30;;;3.10;88.00;;;;;;5097451;28;20484;-44
2021/12/04 04:07:52;;;;;;;3.80;3.40;;;3.10;87.90;;;;;;5099804;28;20452;-44
2021/12/04 04:10:21;;;;;;;4.87;3.67;;;3.10;88.10;;;;;;5103079;28;20452;-44
2021/12/04 04:12:48;;;;;;;4.00;2.93;;;3.10;88.10;;;;;;5105993;28;20455;-44
2021/12/04 04:15:16;;;;;;;3.93;3.40;;;3.10;88.00;;;;;;5080077;28;20454;-45
2021/12/04 04:17:43;;;;;;;3.23;2.93;;;3.10;88.10;;;;;;5096295;28;20448;-44
2021/12/04 04:20:13;;;;;;;2.97;2.70;;;3.20;88.00;;;;;;5098516;28;20455;-44
2021/12/04 04:22:39;;;;;;;3.43;3.07;;;3.10;87.90;;;;;;5098435;28;20453;-44
2021/12/04 04:25:08;;;;;;;3.70;3.20;;;3.10;87.90;;;;;;5104392;27;20479;-44
2021/12/04 04:27:35;;;;;;;4.10;3.53;;;3.10;88.00;;;;;;5104072;28;20448;-44
2021/12/04 04:30:05;;;;;;;4.13;3.40;;;3.10;88.00;;;;;;5093540;27;20467;-44
2021/12/04 04:32:33;;;;;;;3.07;2.80;;;3.10;88.00;;;;;;5064961;28;20456;-44
2021/12/04 04:35:08;;;;;;;4.33;2.93;;;3.10;88.10;;;;;;5104458;27;20466;-44
2021/12/04 05:10:40;;;;;;;3.53;3.23;;;3.10;88.60;;;;;;5096996;28;20457;-44
2021/12/04 05:13:15;;;;;;;3.97;3.60;;;3.10;88.60;;;;;;5098597;28;20443;-44
2021/12/04 05:20:53;;;;;;;4.60;3.67;;;3.10;88.80;;;;;;5096562;28;20452;-44
2021/12/04 05:23:22;;;;;;;4.13;3.13;;;3.10;88.90;;;;;;5098356;28;20460;-44
2021/12/04 05:25:50;;;;;;;4.27;3.83;;;3.10;88.90;;;;;;5080933;28;20515;-44
2021/12/04 05:28:17;;;;;;;3.83;3.43;;;3.00;89.00;;;;;;5100407;28;20810;-44
2021/12/04 05:30:44;;;;;;;3.70;3.23;;;3.00;89.10;;;;;;5081885;28;20456;-44
2021/12/04 05:33:11;;;;;;;6.73;3.70;;;3.10;89.20;;;;;;5083724;28;20473;-44
2021/12/04 05:35:38;;;;;;;4.07;3.30;;;3.10;89.20;;;;;;5099682;27;20453;-44
2021/12/04 05:38:05;;;;;;;5.27;3.80;;;3.10;89.10;;;;;;5102395;27;20498;-44
2021/12/04 05:40:32;;;;;;;4.13;3.43;;;3.10;89.10;;;;;;5098890;28;20537;-44
2021/12/04 05:43:03;;;;;;;4.50;3.40;;;3.10;89.10;;;;;;5096843;28;20464;-44
2021/12/04 05:45:33;;;;;;;4.43;4.00;;;3.10;89.10;;;;;;5082833;28;21016;-44
2021/12/04 05:53:16;;;;;;;4.40;3.53;;;3.10;89.30;;;;;;5098379;28;20460;-44
2021/12/04 05:55:53;;;;;;;;;;;;;;;;;;;;;
2021/12/04 05:58:30;;;;;;;5.13;3.70;;;3.10;89.30;;;;;;5091790;28;20459;-44
2021/12/04 06:01:00;;;;;;;6.90;4.80;;;3.10;89.40;;;;;;5091005;28;20460;-44
2021/12/04 06:03:27;;;;;;;4.80;4.40;;;3.10;89.50;;;;;;5096340;28;20778;-44
2021/12/04 06:05:54;;;;;;;6.33;3.87;;;3.10;89.50;;;;;;5076348;28;20491;-44
2021/12/04 06:08:21;;;;;;;5.37;4.30;;;3.10;89.40;;;;;;5077525;28;20462;-44
2021/12/04 06:10:50;;;;;;;6.53;5.10;;;3.10;89.40;;;;;;5078283;28;20937;-44
2021/12/04 06:13:17;;;;;;;4.80;4.30;;;3.10;89.50;;;;;;5072745;28;20465;-44
2021/12/04 06:15:44;;;;;;;6.93;5.13;;;3.10;89.50;;;;;;5093967;27;21061;-44
2021/12/04 06:18:13;;;;;;;7.60;4.70;;;3.10;89.50;;;;;;5074817;28;20552;-44
2021/12/04 06:23:25;;;;;;;5.87;5.27;;;3.20;89.30;;;;;;5074834;28;20461;-44
2021/12/04 06:25:52;;;;;;;8.93;5.77;;;3.20;89.30;;;;;;5077571;28;20499;-44
2021/12/04 06:28:19;;;;;;;6.87;4.87;;;3.20;89.30;;;;;;5096896;28;20535;-44
2021/12/04 06:30:46;;;;;;;5.40;4.90;;;3.20;89.40;;;;;;5093134;28;20833;-44
2021/12/04 06:33:17;;;;;;;8.03;5.80;;;3.20;89.60;;;;;;5095852;28;20921;-44
2021/12/04 06:35:46;;;;;;;7.93;5.27;;;3.20;89.60;;;;;;5079845;28;20499;-44
2021/12/04 06:38:16;;;;;;;6.40;5.50;;;3.30;89.60;;;;;;5096606;28;20451;-44
2021/12/04 06:40:44;;;;;;;7.63;5.70;;;3.30;89.60;;;;;;5097126;28;20955;-44
2021/12/04 06:43:11;;;;;;;7.77;6.10;;;3.30;89.40;;;;;;5095305;28;20441;-44
2021/12/04 06:45:41;;;;;;;9.10;6.87;;;3.30;89.60;;;;;;5096020;28;20491;-44
2021/12/04 06:48:16;;;;;;;6.90;6.07;;;3.30;89.40;;;;;;5098317;27;20440;-44
2021/12/04 06:50:50;;;;;;;6.70;5.83;;;3.30;89.40;;;;;;5086646;28;20482;-44
2021/12/04 06:55:55;;;;;;;8.27;6.30;;;3.30;89.70;;;;;;5101149;28;20475;-45
2021/12/04 06:58:24;;;;;;;7.90;6.83;;;3.40;89.60;;;;;;5083378;28;20456;-44
2021/12/04 07:00:51;;;;;;;8.90;8.00;;;3.50;89.30;;;;;;5102561;28;20823;-44
2021/12/04 07:03:19;;;;;;;13.43;7.37;;;3.50;89.00;;;;;;5105841;28;20455;-44
2021/12/04 07:05:47;;;;;;;9.20;7.00;;;3.50;89.10;;;;;;5089320;28;20476;-44
2021/12/04 07:08:15;;;;;;;12.70;7.60;;;3.50;89.10;;;;;;5098086;28;20448;-44
2021/12/04 07:10:42;;;;;;;11.27;7.73;;;3.50;89.10;;;;;;5091989;28;20457;-44
2021/12/04 07:13:09;;;;;;;11.77;7.23;;;3.50;89.30;;;;;;5078811;28;20452;-44
2021/12/04 07:15:36;;;;;;;11.30;8.10;;;3.40;89.30;;;;;;5074101;28;20456;-44
2021/12/04 07:18:03;;;;;;;11.70;7.90;;;3.40;89.40;;;;;;5094648;28;20456;-44
2021/12/04 07:20:30;;;;;;;11.73;7.67;;;3.50;89.50;;;;;;5095218;28;20515;-44
2021/12/04 07:22:59;;;;;;;12.80;8.60;;;3.50;89.50;;;;;;5094315;28;20456;-44
2021/12/04 07:25:27;;;;;;;15.47;9.67;;;3.50;89.50;;;;;;5083203;28;20475;-44
2021/12/04 07:27:54;;;;;;;15.20;9.43;;;3.50;89.50;;;;;;5062222;28;20525;-44
2021/12/04 07:30:22;;;;;;;17.07;10.07;;;3.50;89.60;;;;;;5093028;28;20448;-44
2021/12/04 07:32:51;;;;;;;16.83;10.33;;;3.50;89.60;;;;;;5098677;28;20448;-44
2021/12/04 07:35:18;;;;;;;19.10;10.73;;;3.50;89.60;;;;;;5078899;28;20462;-44
2021/12/04 07:37:45;;;;;;;18.17;11.10;;;3.50;89.60;;;;;;5102347;28;20458;-44
2021/12/04 07:40:11;;;;;;;16.23;11.30;;;3.50;89.60;;;;;;5075908;28;20971;-44
2021/12/04 07:42:38;;;;;;;16.50;10.60;;;3.50;89.50;;;;;;5099897;27;20493;-44
2021/12/04 07:45:07;;;;;;;17.73;11.10;;;3.50;89.50;;;;;;5091922;27;20491;-44
2021/12/04 07:47:35;;;;;;;17.53;11.53;;;3.50;89.60;;;;;;5101782;27;20463;-44
2021/12/04 07:50:05;;;;;;;17.83;11.57;;;3.50;89.70;;;;;;5101746;27;20460;-44
2021/12/04 07:52:32;;;;;;;16.90;10.27;;;3.50;89.70;;;;;;5079869;28;20464;-44
2021/12/04 07:54:59;;;;;;;17.43;12.60;;;3.50;89.80;;;;;;5090012;27;20455;-44
2021/12/04 07:57:26;;;;;;;17.27;12.20;;;3.50;89.80;;;;;;5101417;27;20464;-44
2021/12/04 07:59:53;;;;;;;18.33;12.20;;;3.50;89.80;;;;;;5083179;28;20543;-44
2021/12/04 08:02:19;;;;;;;17.47;10.37;;;3.50;89.80;;;;;;5081357;28;20526;-44
2021/12/04 08:04:46;;;;;;;19.03;12.57;;;3.50;89.80;;;;;;5082921;27;20458;-44
2021/12/04 08:07:13;;;;;;;18.53;13.13;;;3.50;89.80;;;;;;5101680;27;20502;-44
2021/12/04 08:09:40;;;;;;;18.07;12.70;;;3.50;89.80;;;;;;5098011;27;20460;-44
2021/12/04 08:12:10;;;;;;;20.07;12.43;;;3.50;89.80;;;;;;5097581;28;20492;-44
2021/12/04 08:14:38;;;;;;;20.97;13.13;;;3.50;89.80;;;;;;5099838;27;20458;-44
2021/12/04 08:17:05;;;;;;;17.20;11.93;;;3.50;89.80;;;;;;5080214;28;20467;-44
2021/12/04 08:19:32;;;;;;;22.77;13.87;;;3.50;89.80;;;;;;5101523;27;20994;-44
2021/12/04 08:21:59;;;;;;;21.40;12.53;;;3.50;89.80;;;;;;5098609;27;20459;-44
2021/12/04 08:24:26;;;;;;;17.00;13.23;;;3.50;89.80;;;;;;5097685;27;20903;-44
2021/12/04 08:26:53;;;;;;;19.77;12.53;;;3.50;89.80;;;;;;5068472;27;20494;-44
2021/12/04 08:29:20;;;;;;;24.97;14.10;;;3.50;89.80;;;;;;5067136;28;20813;-44
2021/12/04 08:31:47;;;;;;;24.97;14.90;;;3.50;89.80;;;;;;5099540;27;20540;-44
2021/12/04 08:34:14;;;;;;;23.53;14.07;;;3.60;89.80;;;;;;5100763;27;20467;-44
2021/12/04 08:36:42;;;;;;;23.80;13.20;;;3.60;89.80;;;;;;5088711;27;20455;-44
2021/12/04 08:39:10;;;;;;;25.20;12.73;;;3.60;89.80;;;;;;5083367;28;20457;-44
2021/12/04 08:41:37;;;;;;;20.80;13.07;;;3.60;89.80;;;;;;5092946;28;20465;-44
2021/12/04 08:44:04;;;;;;;22.47;13.17;;;3.60;89.80;;;;;;5103048;27;20448;-44
2021/12/04 08:46:33;;;;;;;22.00;11.07;;;3.60;89.80;;;;;;5099956;27;20484;-44
2021/12/04 08:49:00;;;;;;;18.37;10.33;;;3.60;89.80;;;;;;5085262;28;20457;-44
2021/12/04 08:51:31;;;;;;;19.53;12.97;;;3.60;89.80;;;;;;5099854;27;20484;-44
2021/12/04 08:53:58;;;;;;;21.40;11.40;;;3.60;89.80;;;;;;5099795;27;20452;-44
2021/12/04 08:56:25;;;;;;;22.03;11.87;;;3.60;89.80;;;;;;5098364;27;20870;-44
2021/12/04 08:58:51;;;;;;;29.20;13.70;;;3.60;89.80;;;;;;5102699;27;20444;-44
2021/12/04 09:01:25;;;;;;;43.50;13.60;;;3.60;89.80;;;;;;5082887;28;20464;-44
2021/12/04 09:04:04;;;;;;;38.10;14.83;;;3.60;89.80;;;;;;5081490;28;20464;-44
2021/12/04 09:06:32;;;;;;;29.97;11.60;;;3.60;89.80;;;;;;5083542;28;20479;-44
2021/12/04 09:08:59;;;;;;;20.27;12.23;;;3.60;89.80;;;;;;5098103;28;20456;-44
2021/12/04 09:11:50;;;;;;;18.43;12.10;;;3.60;89.80;;;;;;5098172;27;20455;-44
2021/12/04 09:14:21;;;;;;;16.80;10.77;;;3.70;89.80;;;;;;5102391;28;20458;-44
2021/12/04 09:16:51;;;;;;;20.73;10.90;;;3.70;89.80;;;;;;5102602;28;20823;-45
2021/12/04 09:19:19;;;;;;;22.43;13.97;;;3.70;89.80;;;;;;5102132;28;20454;-44
2021/12/04 09:21:46;;;;;;;22.30;15.40;;;3.70;89.80;;;;;;5079800;27;20460;-44
2021/12/04 09:24:17;;;;;;;23.50;14.20;;;3.70;89.80;;;;;;5079022;28;20459;-44
2021/12/04 09:34:44;;;;;;;19.90;12.37;;;3.80;89.80;;;;;;5100330;27;20961;-44
2021/12/04 10:13:47;;;;;;;22.70;14.70;;;4.00;89.80;;;;;;5095521;28;20471;-44
2021/12/04 10:33:17;;;;;;;22.97;13.37;;;4.10;89.80;;;;;;5095731;27;20452;-44
2021/12/04 10:35:46;;;;;;;18.23;12.20;;;4.20;89.80;;;;;;5098503;28;20460;-44
2021/12/04 10:38:19;;;;;;;19.30;12.80;;;4.20;89.80;;;;;;5092997;27;20463;-44
2021/12/04 10:40:48;;;;;;;19.80;12.67;;;4.20;89.80;;;;;;5099914;27;20543;-44
2021/12/04 10:43:25;;;;;;;20.13;14.30;;;4.20;89.80;;;;;;5070011;28;20447;-45
2021/12/04 10:45:58;;;;;;;19.47;11.93;;;4.20;89.80;;;;;;5096334;28;20479;-45
2021/12/04 10:48:29;;;;;;;19.57;10.70;;;4.20;89.80;;;;;;5081836;28;20475;-45
2021/12/04 10:53:47;;;;;;;15.90;10.43;;;4.30;89.80;;;;;;5097993;28;20445;-45
2021/12/04 10:59:20;;;;;;;14.37;9.77;;;4.30;89.80;;;;;;5095454;28;20460;-45
2021/12/04 11:02:07;;;;;;;16.07;11.00;;;4.30;89.80;;;;;;5078127;28;20460;-44
2021/12/04 11:04:41;;;;;;;16.80;9.50;;;4.30;89.80;;;;;;5094639;28;20480;-44
2021/12/04 11:18:42;;;;;;;19.60;12.97;;;4.30;89.80;;;;;;5101561;27;20578;-45
2021/12/04 11:37:07;;;;;;;20.90;12.33;;;4.40;89.80;;;;;;5096885;27;20515;-44
2021/12/04 11:42:21;;;;;;;23.40;13.23;;;4.40;89.80;;;;;;5078486;28;20538;-45
2021/12/04 11:44:55;;;;;;;27.97;21.43;;;4.40;89.80;;;;;;5103699;27;20461;-44
2021/12/04 11:47:22;;;;;;;23.70;16.57;;;4.40;89.80;;;;;;5096495;28;20495;-44
2021/12/04 11:49:50;;;;;;;23.03;13.40;;;4.40;89.80;;;;;;5096713;27;20452;-44
2021/12/04 11:52:20;;;;;;;21.07;12.27;;;4.40;89.80;;;;;;5099122;28;20454;-44
2021/12/04 11:54:57;;;;;;;20.10;13.60;;;4.50;89.80;;;;;;5068918;28;20480;-45
2021/12/04 11:57:35;;;;;;;19.47;10.80;;;4.50;89.80;;;;;;5089108;28;21065;-45
2021/12/04 12:00:30;;;;;;;23.40;15.10;;;4.60;89.80;;;;;;5100881;27;20467;-44
2021/12/04 12:03:13;;;;;;;19.27;11.30;;;4.60;89.80;;;;;;5079930;27;21020;-44
2021/12/04 12:05:43;;;;;;;20.00;11.33;;;4.60;89.80;;;;;;5087514;27;20459;-44
2021/12/04 12:08:30;;;;;;;21.90;11.60;;;4.60;89.80;;;;;;5101545;27;20440;-44
2021/12/04 12:11:05;;;;;;;19.17;11.60;;;4.70;89.80;;;;;;5080054;28;20449;-44
2021/12/04 12:13:38;;;;;;;23.73;14.73;;;4.70;89.80;;;;;;5062819;28;20467;-44
2021/12/04 12:16:09;;;;;;;22.60;11.87;;;4.70;89.80;;;;;;5087670;28;20812;-44
2021/12/04 12:18:50;;;;;;;20.73;14.07;;;4.70;89.80;;;;;;5078619;28;20463;-44
2021/12/04 12:21:22;;;;;;;20.73;11.77;;;4.70;89.80;;;;;;5100374;27;20465;-44
2021/12/04 12:37:53;;;;;;;23.07;13.60;;;4.70;89.80;;;;;;5099970;27;20467;-45
2021/12/04 12:40:28;;;;;;;22.67;13.13;;;4.70;89.80;;;;;;5099282;28;20464;-45
2021/12/04 12:42:55;;;;;;;20.83;12.70;;;4.70;89.80;;;;;;5082966;27;20465;-45
2021/12/04 12:45:29;;;;;;;22.77;12.10;;;4.70;89.80;;;;;;5105108;27;20544;-44
2021/12/04 12:48:06;;;;;;;23.20;13.00;;;4.70;89.80;;;;;;5100780;27;20518;-44
2021/12/04 12:50:40;;;;;;;18.47;10.87;;;4.70;89.80;;;;;;5102131;27;20495;-44
2021/12/04 12:53:14;;;;;;;19.20;10.83;;;4.70;89.80;;;;;;5094624;27;20466;-45
2021/12/04 12:55:43;;;;;;;24.20;13.57;;;4.70;89.80;;;;;;5086272;27;20476;-44
2021/12/04 12:58:18;;;;;;;20.80;9.93;;;4.60;89.80;;;;;;5090615;27;20471;-44
2021/12/04 13:12:06;;;;;;;21.77;10.70;;;4.60;89.80;;;;;;5093974;27;21122;-43
2021/12/04 13:14:45;;;;;;;19.00;11.40;;;4.60;89.80;;;;;;5080709;27;21045;-43
2021/12/04 13:17:28;;;;;;;20.67;11.27;;;4.60;89.80;;;;;;5097035;28;20467;-43
2021/12/04 13:19:58;;;;;;;20.90;10.70;;;4.60;89.80;;;;;;5093987;28;20468;-43
2021/12/04 13:22:29;;;;;;;16.20;9.37;;;4.60;89.80;;;;;;5096757;27;20467;-43
2021/12/04 13:24:59;;;;;;;17.60;11.07;;;4.60;89.80;;;;;;5099507;27;20455;-43
2021/12/04 13:30:06;;;;;;;18.90;11.20;;;4.60;89.80;;;;;;5078723;27;20549;-44
2021/12/04 13:32:34;;;;;;;19.30;11.60;;;4.60;89.80;;;;;;5101547;27;20975;-44
2021/12/04 13:35:10;;;;;;;17.13;11.33;;;4.60;89.80;;;;;;5084135;28;20457;-44
2021/12/04 13:37:37;;;;;;;18.33;10.57;;;4.70;89.80;;;;;;5085017;27;20467;-43
2021/12/04 13:40:09;;;;;;;15.10;9.73;;;4.70;89.80;;;;;;5095562;28;20456;-43
2021/12/04 13:42:38;;;;;;;20.37;12.07;;;4.70;89.80;;;;;;5099938;27;20464;-43
2021/12/04 13:45:08;;;;;;;20.47;11.57;;;4.80;89.80;;;;;;5078715;28;20938;-43
2021/12/04 13:47:36;;;;;;;14.47;10.00;;;4.70;89.80;;;;;;5094879;28;20530;-43
2021/12/04 13:53:12;;;;;;;19.30;9.87;;;4.70;89.80;;;;;;5102243;27;20460;-43
2021/12/04 13:55:43;;;;;;;12.90;8.60;;;4.70;89.80;;;;;;5083886;28;20473;-43
2021/12/04 13:58:10;;;;;;;13.20;8.10;;;4.60;89.80;;;;;;5097535;28;20460;-43
2021/12/04 14:00:37;;;;;;;16.80;10.03;;;4.60;89.80;;;;;;5100754;28;20848;-43
2021/12/04 14:03:04;;;;;;;15.17;8.97;;;4.50;89.80;;;;;;5105352;27;20456;-43
2021/12/04 14:05:31;;;;;;;15.37;9.83;;;4.60;89.80;;;;;;5100345;27;20465;-43
2021/12/04 14:08:00;;;;;;;13.77;10.00;;;4.60;89.80;;;;;;5088311;28;20550;-43
2021/12/04 14:10:31;;;;;;;15.50;9.53;;;4.60;89.80;;;;;;5094337;28;20800;-43
2021/12/04 14:13:01;;;;;;;14.10;8.73;;;4.60;89.80;;;;;;5097648;27;20463;-43
2021/12/04 14:15:31;;;;;;;13.00;8.03;;;4.60;89.80;;;;;;5082498;28;20446;-43
2021/12/04 14:18:02;;;;;;;13.63;8.80;;;4.50;89.80;;;;;;5096999;28;20444;-43
2021/12/04 14:20:31;;;;;;;11.10;8.13;;;4.60;89.80;;;;;;5099937;28;20542;-43
2021/12/04 14:22:58;;;;;;;10.17;6.47;;;4.60;89.80;;;;;;5075828;28;20476;-43
2021/12/04 14:25:26;;;;;;;11.73;6.73;;;4.60;89.80;;;;;;5082629;28;20448;-43
2021/12/04 14:27:55;;;;;;;10.50;7.20;;;4.60;89.80;;;;;;5083676;28;20510;-43
2021/12/04 14:30:32;;;;;;;9.67;6.73;;;4.60;89.80;;;;;;5077810;28;20479;-43
2021/12/04 14:33:01;;;;;;;8.10;6.60;;;4.60;89.80;;;;;;5095451;27;20828;-43
2021/12/04 14:35:35;;;;;;;10.13;5.93;;;4.60;89.80;;;;;;5079944;28;20870;-43
2021/12/04 14:38:05;;;;;;;8.57;5.73;;;4.60;89.80;;;;;;5083385;28;20461;-43
2021/12/04 14:40:42;;;;;;;10.03;6.67;;;4.70;89.80;;;;;;5096721;27;21012;-43
2021/12/04 14:43:11;;;;;;;9.97;6.33;;;4.70;89.80;;;;;;5096314;28;20559;-44
2021/12/04 14:45:40;;;;;;;9.87;6.30;;;4.70;89.80;;;;;;5095592;28;20822;-43
2021/12/04 14:48:28;;;;;;;8.63;6.13;;;4.70;89.80;;;;;;5095223;28;20580;-43
2021/12/04 14:51:06;;;;;;;12.07;6.40;;;4.70;89.80;;;;;;5080098;28;21037;-43
2021/12/04 14:53:42;;;;;;;7.40;5.70;;;4.70;89.80;;;;;;5098228;28;20444;-43
2021/12/04 14:56:10;;;;;;;9.20;6.57;;;4.70;89.80;;;;;;5078561;28;20571;-43
2021/12/04 14:58:37;;;;;;;8.13;5.83;;;4.70;89.80;;;;;;5095500;28;20460;-43
2021/12/04 15:01:09;;;;;;;10.17;6.73;;;4.70;89.80;;;;;;5101421;28;20470;-43
2021/12/04 15:03:44;;;;;;;7.50;5.63;;;4.70;89.80;;;;;;5086183;28;20933;-43
2021/12/04 15:06:15;;;;;;;8.17;5.20;;;4.70;89.80;;;;;;5079200;28;20455;-43
2021/12/04 15:09:08;;;;;;;8.90;6.83;;;4.70;89.80;;;;;;5077293;28;21042;-43
2021/12/04 15:11:37;;;;;;;10.83;6.67;;;4.70;89.80;;;;;;5082547;28;20987;-43
2021/12/04 15:14:12;;;;;;;10.63;7.10;;;4.70;89.80;;;;;;5094735;28;20704;-43
2021/12/04 15:16:48;;;;;;;10.03;7.13;;;4.70;89.80;;;;;;5095070;28;21026;-43
2021/12/04 15:19:20;;;;;;;13.50;9.00;;;4.70;89.80;;;;;;5078337;28;20452;-43
2021/12/04 15:21:57;;;;;;;10.40;7.97;;;4.70;89.80;;;;;;5078524;28;20989;-44
2021/12/04 15:24:32;;;;;;;10.30;7.23;;;4.70;89.80;;;;;;5082803;28;20973;-43
2021/12/04 15:27:04;;;;;;;10.87;6.90;;;4.70;89.80;;;;;;5093815;28;20488;-43
2021/12/04 15:29:34;;;;;;;10.80;6.90;;;4.70;89.80;;;;;;5097218;28;20498;-43
2021/12/04 15:32:10;;;;;;;10.73;7.20;;;4.70;89.80;;;;;;5094264;28;20510;-43
2021/12/04 15:34:54;;;;;;;9.37;6.30;;;4.80;89.80;;;;;;5079181;28;20456;-43
2021/12/04 15:37:29;;;;;;;11.23;7.10;;;4.80;89.80;;;;;;5096534;28;20556;-43
2021/12/04 15:39:56;;;;;;;14.60;8.33;;;4.80;89.80;;;;;;5097368;28;20467;-44
2021/12/04 15:42:26;;;;;;;13.37;8.67;;;4.70;89.80;;;;;;5076973;28;20467;-43
2021/12/04 15:45:21;;;;;;;10.60;7.17;;;4.70;89.80;;;;;;5099885;28;20521;-43
2021/12/04 15:48:02;;;;;;;12.90;8.50;;;4.70;89.80;;;;;;5089902;28;20609;-43
2021/12/04 15:50:55;;;;;;;11.63;7.93;;;4.70;89.80;;;;;;5077860;28;20554;-43
2021/12/04 15:53:22;;;;;;;10.70;6.83;;;4.80;89.80;;;;;;5090807;28;20449;-43
2021/12/04 15:55:54;;;;;;;12.17;8.07;;;4.90;89.80;;;;;;5100431;28;20559;-43
2021/12/04 15:58:25;;;;;;;12.87;7.80;;;4.90;89.80;;;;;;5098538;27;20488;-44
2021/12/04 16:00:55;;;;;;;11.17;7.17;;;4.90;89.80;;;;;;5103532;27;20837;-43
2021/12/04 16:03:26;;;;;;;12.50;6.77;;;4.90;89.80;;;;;;5100428;28;20586;-43
2021/12/04 16:06:00;;;;;;;10.90;7.10;;;4.90;89.80;;;;;;5098055;28;20530;-43
2021/12/04 16:08:29;;;;;;;8.40;6.87;;;4.90;89.80;;;;;;5098423;28;20567;-43
2021/12/04 16:11:13;;;;;;;10.40;7.13;;;4.80;89.80;;;;;;5087651;28;20474;-43
2021/12/04 16:13:44;;;;;;;12.57;8.70;;;4.70;89.80;;;;;;5099378;28;20471;-43
2021/12/04 16:16:21;;;;;;;12.00;7.00;;;4.80;89.80;;;;;;5099702;28;20517;-43
2021/12/04 16:18:51;;;;;;;11.40;7.40;;;4.70;89.80;;;;;;5101884;28;20478;-43
2021/12/04 16:21:18;;;;;;;12.60;7.43;;;4.70;89.80;;;;;;5099887;27;20460;-43
2021/12/04 16:23:48;;;;;;;10.43;7.27;;;4.80;89.80;;;;;;5086372;28;20564;-43
2021/12/04 16:26:17;;;;;;;15.03;8.80;;;4.80;89.80;;;;;;5100881;28;20475;-43